sensor_id;sensor_type;location;lat;lon;timestamp;pressure;altitude;pressure_sealevel;temperature;humidity
4745;BME280;2386;42.138;24.746;2023-06-04T00:01:10;99692.41;;;21.14;81.24
4745;BME280;2386;42.138;24.746;2023-06-04T00:03:36;99684.72;;;21.11;81.10
4745;BME280;2386;42.138;24.746;2023-06-04T00:06:01;99688.53;;;20.96;80.61
4745;BME280;2386;42.138;24.746;2023-06-04T00:08:27;99692.19;;;20.91;80.73
4745;BME280;2386;42.138;24.746;2023-06-04T00:10:52;99680.09;;;20.87;80.63
4745;BME280;2386;42.138;24.746;2023-06-04T00:16:35;99695.97;;;20.95;79.77
4745;BME280;2386;42.138;24.746;2023-06-04T00:19:01;99683.38;;;20.89;78.30
4745;BME280;2386;42.138;24.746;2023-06-04T00:21:26;99683.31;;;20.76;78.94
4745;BME280;2386;42.138;24.746;2023-06-04T00:23:52;99678.16;;;20.69;78.90
4745;BME280;2386;42.138;24.746;2023-06-04T00:26:17;99676.66;;;20.58;80.18
4745;BME280;2386;42.138;24.746;2023-06-04T00:28:43;99682.53;;;20.51;80.85
4745;BME280;2386;42.138;24.746;2023-06-04T00:31:08;99683.66;;;20.50;81.56
4745;BME280;2386;42.138;24.746;2023-06-04T00:33:35;99682.22;;;20.53;80.97
4745;BME280;2386;42.138;24.746;2023-06-04T00:36:01;99686.69;;;20.49;81.96
4745;BME280;2386;42.138;24.746;2023-06-04T00:38:26;99687.75;;;20.53;82.92
4745;BME280;2386;42.138;24.746;2023-06-04T00:40:52;99694.53;;;20.60;83.84
4745;BME280;2386;42.138;24.746;2023-06-04T00:43:17;99685.81;;;20.53;83.56
4745;BME280;2386;42.138;24.746;2023-06-04T00:45:44;99674.19;;;20.56;83.37
4745;BME280;2386;42.138;24.746;2023-06-04T00:48:09;99683.00;;;20.58;83.99
4745;BME280;2386;42.138;24.746;2023-06-04T00:50:35;99689.84;;;20.61;84.20
4745;BME280;2386;42.138;24.746;2023-06-04T00:53:04;99694.84;;;20.59;84.92
4745;BME280;2386;42.138;24.746;2023-06-04T00:55:30;99698.94;;;20.61;84.78
4745;BME280;2386;42.138;24.746;2023-06-04T00:57:56;99695.66;;;20.59;85.66
4745;BME280;2386;42.138;24.746;2023-06-04T01:00:22;99691.44;;;20.67;85.31
4745;BME280;2386;42.138;24.746;2023-06-04T01:02:49;99703.50;;;20.71;85.11
4745;BME280;2386;42.138;24.746;2023-06-04T01:05:25;99703.03;;;20.64;86.40
4745;BME280;2386;42.138;24.746;2023-06-04T01:07:55;99700.81;;;20.66;85.55
4745;BME280;2386;42.138;24.746;2023-06-04T01:10:22;99701.41;;;20.63;85.25
4745;BME280;2386;42.138;24.746;2023-06-04T01:12:47;99692.38;;;20.57;86.44
4745;BME280;2386;42.138;24.746;2023-06-04T01:15:13;99707.75;;;20.63;86.72
4745;BME280;2386;42.138;24.746;2023-06-04T01:21:20;99711.38;;;20.59;87.05
4745;BME280;2386;42.138;24.746;2023-06-04T01:23:50;99704.00;;;20.54;86.99
4745;BME280;2386;42.138;24.746;2023-06-04T01:26:31;99713.53;;;20.62;87.31
4745;BME280;2386;42.138;24.746;2023-06-04T01:28:58;99704.69;;;20.65;86.72
4745;BME280;2386;42.138;24.746;2023-06-04T01:31:24;99715.13;;;20.68;86.65
4745;BME280;2386;42.138;24.746;2023-06-04T01:33:53;99707.97;;;20.67;87.11
4745;BME280;2386;42.138;24.746;2023-06-04T01:36:19;99711.91;;;20.61;87.22
4745;BME280;2386;42.138;24.746;2023-06-04T01:38:44;99703.16;;;20.54;87.77
4745;BME280;2386;42.138;24.746;2023-06-04T01:41:10;99703.03;;;20.64;87.51
4745;BME280;2386;42.138;24.746;2023-06-04T01:43:36;99714.59;;;20.66;87.93
4745;BME280;2386;42.138;24.746;2023-06-04T01:46:02;99691.56;;;20.57;87.80
4745;BME280;2386;42.138;24.746;2023-06-04T01:48:28;99698.72;;;20.58;87.52
4745;BME280;2386;42.138;24.746;2023-06-04T01:50:54;99701.94;;;20.65;87.62
4745;BME280;2386;42.138;24.746;2023-06-04T01:53:20;99698.66;;;20.63;87.69
4745;BME280;2386;42.138;24.746;2023-06-04T01:55:45;99705.28;;;20.62;87.91
4745;BME280;2386;42.138;24.746;2023-06-04T01:58:11;99706.41;;;20.61;87.53
4745;BME280;2386;42.138;24.746;2023-06-04T02:00:36;99710.19;;;20.65;88.06
4745;BME280;2386;42.138;24.746;2023-06-04T02:03:01;99717.34;;;20.66;87.42
4745;BME280;2386;42.138;24.746;2023-06-04T02:05:27;99725.09;;;20.64;88.48
4745;BME280;2386;42.138;24.746;2023-06-04T02:11:14;99732.78;;;20.67;88.09
4745;BME280;2386;42.138;24.746;2023-06-04T02:13:39;99722.63;;;20.62;88.84
4745;BME280;2386;42.138;24.746;2023-06-04T02:16:05;99733.66;;;20.62;89.94
4745;BME280;2386;42.138;24.746;2023-06-04T02:18:30;99729.03;;;20.58;89.91
4745;BME280;2386;42.138;24.746;2023-06-04T02:20:56;99730.66;;;20.59;90.52
4745;BME280;2386;42.138;24.746;2023-06-04T02:23:22;99726.34;;;20.53;91.29
4745;BME280;2386;42.138;24.746;2023-06-04T02:25:47;99725.81;;;20.51;91.60
4745;BME280;2386;42.138;24.746;2023-06-04T02:28:14;99738.75;;;20.50;92.27
4745;BME280;2386;42.138;24.746;2023-06-04T02:30:40;99744.63;;;20.44;92.50
4745;BME280;2386;42.138;24.746;2023-06-04T02:33:06;99736.31;;;20.49;91.32
4745;BME280;2386;42.138;24.746;2023-06-04T02:35:34;99749.03;;;20.45;92.53
4745;BME280;2386;42.138;24.746;2023-06-04T02:38:00;99745.22;;;20.35;92.36
4745;BME280;2386;42.138;24.746;2023-06-04T02:40:25;99747.44;;;20.39;92.10
4745;BME280;2386;42.138;24.746;2023-06-04T02:42:54;99744.91;;;20.42;91.57
4745;BME280;2386;42.138;24.746;2023-06-04T02:45:21;99750.91;;;20.49;90.74
4745;BME280;2386;42.138;24.746;2023-06-04T02:47:47;99753.13;;;20.47;90.91
4745;BME280;2386;42.138;24.746;2023-06-04T02:50:13;99754.53;;;20.45;90.48
4745;BME280;2386;42.138;24.746;2023-06-04T02:52:39;99759.00;;;20.41;90.79
4745;BME280;2386;42.138;24.746;2023-06-04T02:55:06;99755.69;;;20.39;91.22
4745;BME280;2386;42.138;24.746;2023-06-04T02:57:32;99761.22;;;20.39;90.42
4745;BME280;2386;42.138;24.746;2023-06-04T02:59:59;99766.16;;;20.37;90.34
4745;BME280;2386;42.138;24.746;2023-06-04T03:02:25;99768.38;;;20.34;90.30
4745;BME280;2386;42.138;24.746;2023-06-04T03:04:51;99776.06;;;20.38;90.22
4745;BME280;2386;42.138;24.746;2023-06-04T03:07:17;99768.16;;;20.31;90.29
4745;BME280;2386;42.138;24.746;2023-06-04T03:09:46;99770.09;;;20.30;91.18
4745;BME280;2386;42.138;24.746;2023-06-04T03:12:12;99775.00;;;20.39;91.07
4745;BME280;2386;42.138;24.746;2023-06-04T03:14:37;99773.94;;;20.29;91.43
4745;BME280;2386;42.138;24.746;2023-06-04T03:17:03;99770.72;;;20.22;91.44
4745;BME280;2386;42.138;24.746;2023-06-04T03:19:40;99778.97;;;20.22;93.20
4745;BME280;2386;42.138;24.746;2023-06-04T03:22:07;99781.34;;;20.34;93.00
4745;BME280;2386;42.138;24.746;2023-06-04T03:24:35;99782.97;;;20.40;91.92
4745;BME280;2386;42.138;24.746;2023-06-04T03:27:02;99773.06;;;20.39;91.76
4745;BME280;2386;42.138;24.746;2023-06-04T03:29:29;99783.50;;;20.42;91.99
4745;BME280;2386;42.138;24.746;2023-06-04T03:31:55;99798.03;;;20.48;91.40
4745;BME280;2386;42.138;24.746;2023-06-04T03:34:21;99802.44;;;20.49;91.67
4745;BME280;2386;42.138;24.746;2023-06-04T03:36:50;99792.53;;;20.48;90.33
4745;BME280;2386;42.138;24.746;2023-06-04T03:39:16;99795.25;;;20.53;91.43
4745;BME280;2386;42.138;24.746;2023-06-04T03:41:42;99802.91;;;20.56;90.21
4745;BME280;2386;42.138;24.746;2023-06-04T03:44:08;99803.75;;;20.56;90.85
4745;BME280;2386;42.138;24.746;2023-06-04T03:46:33;99809.88;;;20.48;93.51
4745;BME280;2386;42.138;24.746;2023-06-04T03:48:59;99807.91;;;20.54;92.67
4745;BME280;2386;42.138;24.746;2023-06-04T03:51:24;99814.28;;;20.49;93.53
4745;BME280;2386;42.138;24.746;2023-06-04T03:53:50;99803.19;;;20.25;93.05
4745;BME280;2386;42.138;24.746;2023-06-04T03:56:16;99798.50;;;20.26;94.62
4745;BME280;2386;42.138;24.746;2023-06-04T03:58:41;99817.34;;;20.48;93.36
4745;BME280;2386;42.138;24.746;2023-06-04T04:01:06;99809.31;;;20.17;92.44
4745;BME280;2386;42.138;24.746;2023-06-04T04:03:36;99808.25;;;20.13;93.68
4745;BME280;2386;42.138;24.746;2023-06-04T04:06:02;99812.75;;;20.38;94.25
4745;BME280;2386;42.138;24.746;2023-06-04T04:08:27;99810.47;;;20.45;93.37
4745;BME280;2386;42.138;24.746;2023-06-04T04:10:57;99823.38;;;20.50;93.64
4745;BME280;2386;42.138;24.746;2023-06-04T04:13:44;99826.09;;;20.55;93.87
4745;BME280;2386;42.138;24.746;2023-06-04T04:16:09;99829.38;;;20.57;93.85
4745;BME280;2386;42.138;24.746;2023-06-04T04:18:36;99832.06;;;20.62;93.05
4745;BME280;2386;42.138;24.746;2023-06-04T04:21:02;99836.19;;;20.64;92.73
4745;BME280;2386;42.138;24.746;2023-06-04T04:23:29;99843.81;;;20.73;92.71
4745;BME280;2386;42.138;24.746;2023-06-04T04:25:54;99842.41;;;20.75;91.58
4745;BME280;2386;42.138;24.746;2023-06-04T04:28:22;99834.72;;;20.72;91.58
4745;BME280;2386;42.138;24.746;2023-06-04T04:30:47;99830.38;;;20.66;92.68
4745;BME280;2386;42.138;24.746;2023-06-04T04:33:14;99836.91;;;20.75;93.32
4745;BME280;2386;42.138;24.746;2023-06-04T04:35:41;99832.22;;;20.76;96.46
4745;BME280;2386;42.138;24.746;2023-06-04T04:38:08;99841.22;;;20.81;97.33
4745;BME280;2386;42.138;24.746;2023-06-04T04:40:35;99843.56;;;20.93;96.05
4745;BME280;2386;42.138;24.746;2023-06-04T04:43:00;99847.78;;;20.85;97.88
4745;BME280;2386;42.138;24.746;2023-06-04T04:45:25;99849.44;;;20.86;97.15
4745;BME280;2386;42.138;24.746;2023-06-04T04:47:51;99853.78;;;20.92;98.02
4745;BME280;2386;42.138;24.746;2023-06-04T04:50:16;99842.28;;;20.85;96.66
4745;BME280;2386;42.138;24.746;2023-06-04T04:52:42;99839.16;;;20.92;95.11
4745;BME280;2386;42.138;24.746;2023-06-04T04:55:08;99851.72;;;21.03;93.54
4745;BME280;2386;42.138;24.746;2023-06-04T04:57:34;99844.25;;;21.04;92.79
4745;BME280;2386;42.138;24.746;2023-06-04T04:59:59;99858.06;;;21.04;92.57
4745;BME280;2386;42.138;24.746;2023-06-04T05:02:25;99861.63;;;21.04;93.70
4745;BME280;2386;42.138;24.746;2023-06-04T05:04:50;99858.81;;;21.09;92.58
4745;BME280;2386;42.138;24.746;2023-06-04T05:07:15;99853.06;;;21.06;90.54
4745;BME280;2386;42.138;24.746;2023-06-04T05:09:41;99861.81;;;21.13;88.79
4745;BME280;2386;42.138;24.746;2023-06-04T05:12:09;99871.72;;;21.14;89.34
4745;BME280;2386;42.138;24.746;2023-06-04T05:14:35;99859.88;;;21.13;88.28
4745;BME280;2386;42.138;24.746;2023-06-04T05:17:01;99873.38;;;21.15;89.62
4745;BME280;2386;42.138;24.746;2023-06-04T05:19:31;99861.00;;;21.12;89.48
4745;BME280;2386;42.138;24.746;2023-06-04T05:21:58;99867.78;;;21.20;89.87
4745;BME280;2386;42.138;24.746;2023-06-04T05:24:24;99876.53;;;21.03;90.65
4745;BME280;2386;42.138;24.746;2023-06-04T05:26:50;99873.72;;;21.08;92.07
4745;BME280;2386;42.138;24.746;2023-06-04T05:29:15;99875.50;;;21.23;90.70
4745;BME280;2386;42.138;24.746;2023-06-04T05:31:40;99878.97;;;21.34;90.27
4745;BME280;2386;42.138;24.746;2023-06-04T05:34:06;99875.03;;;21.40;89.30
4745;BME280;2386;42.138;24.746;2023-06-04T05:36:31;99894.13;;;21.55;88.09
4745;BME280;2386;42.138;24.746;2023-06-04T05:38:57;99885.19;;;21.63;87.65
4745;BME280;2386;42.138;24.746;2023-06-04T05:41:23;99891.75;;;21.67;87.12
4745;BME280;2386;42.138;24.746;2023-06-04T05:43:49;99901.00;;;21.76;86.82
4745;BME280;2386;42.138;24.746;2023-06-04T05:46:15;99896.75;;;21.84;86.61
4745;BME280;2386;42.138;24.746;2023-06-04T05:48:40;99902.13;;;21.94;86.31
4745;BME280;2386;42.138;24.746;2023-06-04T05:51:06;99895.50;;;21.95;84.34
4745;BME280;2386;42.138;24.746;2023-06-04T05:53:32;99910.34;;;21.99;83.69
4745;BME280;2386;42.138;24.746;2023-06-04T05:55:58;99905.41;;;21.96;85.02
4745;BME280;2386;42.138;24.746;2023-06-04T05:58:23;99911.16;;;21.81;85.29
4745;BME280;2386;42.138;24.746;2023-06-04T06:00:48;99918.59;;;21.61;87.47
4745;BME280;2386;42.138;24.746;2023-06-04T06:03:15;99917.81;;;21.80;87.29
4745;BME280;2386;42.138;24.746;2023-06-04T06:05:44;99932.44;;;21.99;86.40
4745;BME280;2386;42.138;24.746;2023-06-04T06:08:10;99922.81;;;21.96;85.37
4745;BME280;2386;42.138;24.746;2023-06-04T06:10:35;99926.38;;;22.02;85.09
4745;BME280;2386;42.138;24.746;2023-06-04T06:16:22;99930.09;;;22.11;86.35
4745;BME280;2386;42.138;24.746;2023-06-04T06:18:48;99923.66;;;22.16;85.94
4745;BME280;2386;42.138;24.746;2023-06-04T06:21:13;99933.63;;;22.30;85.36
4745;BME280;2386;42.138;24.746;2023-06-04T06:26:52;99931.06;;;22.53;82.62
4745;BME280;2386;42.138;24.746;2023-06-04T06:29:17;99939.34;;;22.53;82.19
4745;BME280;2386;42.138;24.746;2023-06-04T06:35:04;99934.81;;;22.76;81.20
4745;BME280;2386;42.138;24.746;2023-06-04T06:37:30;99934.66;;;22.86;79.92
4745;BME280;2386;42.138;24.746;2023-06-04T06:39:55;99938.69;;;22.93;80.45
4745;BME280;2386;42.138;24.746;2023-06-04T06:45:43;99938.97;;;23.06;78.23
4745;BME280;2386;42.138;24.746;2023-06-04T06:48:08;99942.06;;;23.18;78.64
4745;BME280;2386;42.138;24.746;2023-06-04T06:50:33;99945.34;;;23.20;78.09
4745;BME280;2386;42.138;24.746;2023-06-04T06:53:01;99946.78;;;23.31;78.79
4745;BME280;2386;42.138;24.746;2023-06-04T06:55:27;99944.53;;;23.33;78.00
4745;BME280;2386;42.138;24.746;2023-06-04T06:57:52;99951.09;;;23.37;77.86
4745;BME280;2386;42.138;24.746;2023-06-04T07:00:18;99955.41;;;23.02;79.11
4745;BME280;2386;42.138;24.746;2023-06-04T07:02:44;99949.16;;;23.24;79.33
4745;BME280;2386;42.138;24.746;2023-06-04T07:05:10;99942.47;;;23.25;77.66
4745;BME280;2386;42.138;24.746;2023-06-04T07:07:35;99946.19;;;23.34;78.17
4745;BME280;2386;42.138;24.746;2023-06-04T07:10:01;99953.38;;;23.35;77.91
4745;BME280;2386;42.138;24.746;2023-06-04T07:12:29;99945.66;;;23.32;79.51
4745;BME280;2386;42.138;24.746;2023-06-04T07:14:54;99953.25;;;23.40;78.73
4745;BME280;2386;42.138;24.746;2023-06-04T07:17:21;99956.25;;;23.44;79.95
4745;BME280;2386;42.138;24.746;2023-06-04T07:19:47;99964.13;;;23.37;79.58
4745;BME280;2386;42.138;24.746;2023-06-04T07:22:12;99967.31;;;23.44;79.08
4745;BME280;2386;42.138;24.746;2023-06-04T07:24:38;99969.88;;;23.40;80.31
4745;BME280;2386;42.138;24.746;2023-06-04T07:27:10;99974.28;;;23.27;80.14
4745;BME280;2386;42.138;24.746;2023-06-04T07:29:36;99975.50;;;23.35;79.93
4745;BME280;2386;42.138;24.746;2023-06-04T07:32:02;99964.81;;;23.15;80.80
4745;BME280;2386;42.138;24.746;2023-06-04T07:34:27;99981.84;;;23.22;81.85
4745;BME280;2386;42.138;24.746;2023-06-04T07:36:52;99980.31;;;23.30;82.15
4745;BME280;2386;42.138;24.746;2023-06-04T07:39:18;99984.84;;;23.39;81.37
4745;BME280;2386;42.138;24.746;2023-06-04T07:41:43;99983.09;;;23.43;80.76
4745;BME280;2386;42.138;24.746;2023-06-04T07:44:08;99985.78;;;23.48;80.46
4745;BME280;2386;42.138;24.746;2023-06-04T07:46:34;99981.88;;;23.49;81.10
4745;BME280;2386;42.138;24.746;2023-06-04T07:48:59;99993.16;;;23.53;81.47
4745;BME280;2386;42.138;24.746;2023-06-04T07:51:25;99983.31;;;23.47;81.69
4745;BME280;2386;42.138;24.746;2023-06-04T07:53:50;99981.00;;;23.54;82.06
4745;BME280;2386;42.138;24.746;2023-06-04T07:56:16;99983.97;;;23.57;83.09
4745;BME280;2386;42.138;24.746;2023-06-04T07:58:41;99994.44;;;23.61;82.12
4745;BME280;2386;42.138;24.746;2023-06-04T08:01:06;99982.94;;;23.53;82.49
4745;BME280;2386;42.138;24.746;2023-06-04T08:03:34;99993.56;;;23.46;82.38
4745;BME280;2386;42.138;24.746;2023-06-04T08:05:59;99987.50;;;23.31;83.23
4745;BME280;2386;42.138;24.746;2023-06-04T08:08:25;99995.59;;;23.27;84.35
4745;BME280;2386;42.138;24.746;2023-06-04T08:10:50;99986.06;;;23.19;85.96
4745;BME280;2386;42.138;24.746;2023-06-04T08:13:16;99990.47;;;23.20;86.19
4745;BME280;2386;42.138;24.746;2023-06-04T08:15:41;99989.63;;;23.20;87.44
4745;BME280;2386;42.138;24.746;2023-06-04T08:18:07;99990.88;;;23.27;87.11
4745;BME280;2386;42.138;24.746;2023-06-04T08:20:32;99985.56;;;23.31;86.81
4745;BME280;2386;42.138;24.746;2023-06-04T08:22:57;99978.28;;;23.35;86.58
4745;BME280;2386;42.138;24.746;2023-06-04T08:25:23;99991.63;;;23.47;85.94
4745;BME280;2386;42.138;24.746;2023-06-04T08:27:48;99992.88;;;23.54;83.95
4745;BME280;2386;42.138;24.746;2023-06-04T08:30:14;99994.44;;;23.61;83.64
4745;BME280;2386;42.138;24.746;2023-06-04T08:32:39;99995.16;;;23.66;83.32
4745;BME280;2386;42.138;24.746;2023-06-04T08:35:06;99998.75;;;23.67;83.53
4745;BME280;2386;42.138;24.746;2023-06-04T08:37:32;100005.06;;;23.81;83.54
4745;BME280;2386;42.138;24.746;2023-06-04T08:39:57;99995.25;;;23.75;82.66
4745;BME280;2386;42.138;24.746;2023-06-04T08:42:41;99999.31;;;23.77;81.99
4745;BME280;2386;42.138;24.746;2023-06-04T08:45:11;100010.59;;;23.81;80.80
4745;BME280;2386;42.138;24.746;2023-06-04T08:47:43;99998.84;;;23.75;78.27
4745;BME280;2386;42.138;24.746;2023-06-04T08:50:10;100009.91;;;23.75;79.47
4745;BME280;2386;42.138;24.746;2023-06-04T08:52:37;100008.91;;;23.71;76.78
4745;BME280;2386;42.138;24.746;2023-06-04T08:55:04;100007.25;;;23.70;76.68
4745;BME280;2386;42.138;24.746;2023-06-04T08:57:30;100005.91;;;23.68;75.52
4745;BME280;2386;42.138;24.746;2023-06-04T08:59:56;100003.34;;;23.57;75.66
4745;BME280;2386;42.138;24.746;2023-06-04T09:02:21;100004.47;;;23.56;74.87
4745;BME280;2386;42.138;24.746;2023-06-04T09:04:48;100013.50;;;23.62;76.78
4745;BME280;2386;42.138;24.746;2023-06-04T09:07:14;100006.72;;;23.54;76.37
4745;BME280;2386;42.138;24.746;2023-06-04T09:09:44;100007.31;;;23.51;81.29
4745;BME280;2386;42.138;24.746;2023-06-04T09:12:17;100011.72;;;23.52;82.08
4745;BME280;2386;42.138;24.746;2023-06-04T09:14:43;100001.19;;;23.54;80.67
4745;BME280;2386;42.138;24.746;2023-06-04T09:17:09;100006.13;;;23.57;79.92
4745;BME280;2386;42.138;24.746;2023-06-04T09:19:34;100002.63;;;23.66;79.97
4745;BME280;2386;42.138;24.746;2023-06-04T09:22:00;100004.47;;;23.70;77.33
4745;BME280;2386;42.138;24.746;2023-06-04T09:24:42;100007.31;;;23.79;76.02
4745;BME280;2386;42.138;24.746;2023-06-04T09:27:18;99997.00;;;23.71;77.07
4745;BME280;2386;42.138;24.746;2023-06-04T09:29:55;100012.25;;;23.82;78.13
4745;BME280;2386;42.138;24.746;2023-06-04T09:32:25;100003.00;;;23.86;78.98
4745;BME280;2386;42.138;24.746;2023-06-04T09:34:52;100001.75;;;23.92;78.02
4745;BME280;2386;42.138;24.746;2023-06-04T09:37:18;100020.44;;;24.01;78.68
4745;BME280;2386;42.138;24.746;2023-06-04T09:39:52;100008.41;;;24.05;78.88
4745;BME280;2386;42.138;24.746;2023-06-04T09:42:18;100007.28;;;24.06;79.59
4745;BME280;2386;42.138;24.746;2023-06-04T09:44:44;100012.94;;;24.15;78.52
4745;BME280;2386;42.138;24.746;2023-06-04T09:47:11;100010.16;;;24.15;78.84
4745;BME280;2386;42.138;24.746;2023-06-04T09:49:41;100014.25;;;24.17;76.43
4745;BME280;2386;42.138;24.746;2023-06-04T09:52:07;100010.53;;;24.22;75.27
4745;BME280;2386;42.138;24.746;2023-06-04T09:54:42;100014.66;;;24.24;76.04
4745;BME280;2386;42.138;24.746;2023-06-04T10:00:29;100010.16;;;24.29;71.44
4745;BME280;2386;42.138;24.746;2023-06-04T10:02:58;100020.38;;;24.42;73.49
4745;BME280;2386;42.138;24.746;2023-06-04T10:05:26;100018.50;;;24.51;73.07
4745;BME280;2386;42.138;24.746;2023-06-04T10:11:07;100016.47;;;24.65;70.00
4745;BME280;2386;42.138;24.746;2023-06-04T10:13:53;100011.19;;;24.77;69.94
4745;BME280;2386;42.138;24.746;2023-06-04T10:16:19;100015.94;;;24.99;69.73
4745;BME280;2386;42.138;24.746;2023-06-04T10:18:46;100006.91;;;25.16;67.29
4745;BME280;2386;42.138;24.746;2023-06-04T10:21:13;100020.34;;;25.31;63.86
4745;BME280;2386;42.138;24.746;2023-06-04T10:27:01;100002.94;;;25.48;61.66
4745;BME280;2386;42.138;24.746;2023-06-04T10:29:35;100004.47;;;25.63;60.44
4745;BME280;2386;42.138;24.746;2023-06-04T10:32:01;100004.06;;;25.78;60.17
4745;BME280;2386;42.138;24.746;2023-06-04T10:34:26;99988.06;;;25.83;57.24
4745;BME280;2386;42.138;24.746;2023-06-04T10:36:52;99992.50;;;25.93;55.00
4745;BME280;2386;42.138;24.746;2023-06-04T10:39:28;99985.97;;;26.06;55.55
4745;BME280;2386;42.138;24.746;2023-06-04T10:42:01;99993.50;;;26.23;53.36
4745;BME280;2386;42.138;24.746;2023-06-04T10:44:27;99997.00;;;26.46;54.66
4745;BME280;2386;42.138;24.746;2023-06-04T10:46:53;99996.50;;;26.52;51.41
4745;BME280;2386;42.138;24.746;2023-06-04T10:49:29;99992.56;;;26.62;52.16
4745;BME280;2386;42.138;24.746;2023-06-04T10:51:55;99992.22;;;26.72;50.93
4745;BME280;2386;42.138;24.746;2023-06-04T10:54:25;99988.97;;;26.70;48.76
4745;BME280;2386;42.138;24.746;2023-06-04T10:56:52;99978.13;;;26.77;49.09
4745;BME280;2386;42.138;24.746;2023-06-04T10:59:18;99981.72;;;26.78;49.73
4745;BME280;2386;42.138;24.746;2023-06-04T11:01:44;99978.59;;;26.97;56.27
4745;BME280;2386;42.138;24.746;2023-06-04T11:04:23;99973.34;;;27.04;58.63
4745;BME280;2386;42.138;24.746;2023-06-04T11:07:02;99986.94;;;27.05;56.94
4745;BME280;2386;42.138;24.746;2023-06-04T11:09:30;99977.44;;;26.98;57.12
4745;BME280;2386;42.138;24.746;2023-06-04T11:11:57;99988.41;;;27.03;58.27
4745;BME280;2386;42.138;24.746;2023-06-04T11:14:22;99984.97;;;27.06;60.70
4745;BME280;2386;42.138;24.746;2023-06-04T11:16:48;99985.28;;;27.13;61.07
4745;BME280;2386;42.138;24.746;2023-06-04T11:19:13;99981.66;;;27.21;60.61
4745;BME280;2386;42.138;24.746;2023-06-04T11:21:38;99995.59;;;27.21;53.08
4745;BME280;2386;42.138;24.746;2023-06-04T11:24:04;99994.59;;;27.17;52.31
4745;BME280;2386;42.138;24.746;2023-06-04T11:26:33;99992.66;;;27.09;53.85
4745;BME280;2386;42.138;24.746;2023-06-04T11:29:00;99997.09;;;27.10;51.43
4745;BME280;2386;42.138;24.746;2023-06-04T11:31:25;99983.31;;;27.13;53.17
4745;BME280;2386;42.138;24.746;2023-06-04T11:33:51;99979.03;;;27.16;54.33
4745;BME280;2386;42.138;24.746;2023-06-04T11:36:24;99983.09;;;27.27;55.85
4745;BME280;2386;42.138;24.746;2023-06-04T11:38:58;99985.81;;;27.44;51.43
4745;BME280;2386;42.138;24.746;2023-06-04T11:41:27;99983.44;;;27.64;52.17
4745;BME280;2386;42.138;24.746;2023-06-04T11:43:52;99999.41;;;27.84;52.37
4745;BME280;2386;42.138;24.746;2023-06-04T11:46:19;99987.59;;;27.87;50.84
4745;BME280;2386;42.138;24.746;2023-06-04T11:48:45;99982.41;;;28.48;51.96
4745;BME280;2386;42.138;24.746;2023-06-04T11:51:12;99988.66;;;30.17;45.59
4745;BME280;2386;42.138;24.746;2023-06-04T11:53:37;99988.09;;;31.23;42.74
4745;BME280;2386;42.138;24.746;2023-06-04T11:56:04;99987.00;;;31.28;41.83
4745;BME280;2386;42.138;24.746;2023-06-04T11:58:30;99990.34;;;31.96;40.49
4745;BME280;2386;42.138;24.746;2023-06-04T12:00:56;99990.34;;;33.09;37.59
4745;BME280;2386;42.138;24.746;2023-06-04T12:03:40;99989.31;;;34.42;36.13
4745;BME280;2386;42.138;24.746;2023-06-04T12:06:16;99991.59;;;35.81;34.46
4745;BME280;2386;42.138;24.746;2023-06-04T12:08:52;99994.19;;;36.80;32.36
4745;BME280;2386;42.138;24.746;2023-06-04T12:11:26;100006.50;;;37.87;30.96
4745;BME280;2386;42.138;24.746;2023-06-04T12:13:54;100007.28;;;39.18;28.74
4745;BME280;2386;42.138;24.746;2023-06-04T12:16:20;99992.06;;;39.42;27.00
4745;BME280;2386;42.138;24.746;2023-06-04T12:18:45;99993.22;;;39.55;28.65
4745;BME280;2386;42.138;24.746;2023-06-04T12:21:20;100005.94;;;39.36;28.45
4745;BME280;2386;42.138;24.746;2023-06-04T12:27:08;99991.50;;;37.51;31.06
4745;BME280;2386;42.138;24.746;2023-06-04T12:29:34;100002.03;;;37.65;31.84
4745;BME280;2386;42.138;24.746;2023-06-04T12:32:05;99999.97;;;38.22;29.36
4745;BME280;2386;42.138;24.746;2023-06-04T12:34:34;99994.34;;;37.44;31.00
4745;BME280;2386;42.138;24.746;2023-06-04T12:37:16;100001.72;;;35.85;32.61
4745;BME280;2386;42.138;24.746;2023-06-04T12:39:41;100001.72;;;34.67;34.42
4745;BME280;2386;42.138;24.746;2023-06-04T12:42:08;100008.25;;;33.66;35.81
4745;BME280;2386;42.138;24.746;2023-06-04T12:44:39;99990.34;;;32.70;37.49
4745;BME280;2386;42.138;24.746;2023-06-04T12:47:05;99993.00;;;31.89;38.98
4745;BME280;2386;42.138;24.746;2023-06-04T12:49:31;99996.16;;;31.25;40.58
4745;BME280;2386;42.138;24.746;2023-06-04T12:51:56;99989.41;;;30.98;41.57
4745;BME280;2386;42.138;24.746;2023-06-04T12:54:22;99992.69;;;30.72;40.66
4745;BME280;2386;42.138;24.746;2023-06-04T12:56:48;99996.19;;;30.69;41.11
4745;BME280;2386;42.138;24.746;2023-06-04T12:59:13;99979.41;;;30.29;42.00
4745;BME280;2386;42.138;24.746;2023-06-04T13:01:39;99989.47;;;30.18;42.91
4745;BME280;2386;42.138;24.746;2023-06-04T13:04:05;99985.50;;;30.47;43.30
4745;BME280;2386;42.138;24.746;2023-06-04T13:06:31;99982.81;;;30.62;42.79
4745;BME280;2386;42.138;24.746;2023-06-04T13:08:58;99983.41;;;30.84;42.18
4745;BME280;2386;42.138;24.746;2023-06-04T13:11:23;99977.69;;;31.08;42.48
4745;BME280;2386;42.138;24.746;2023-06-04T13:13:49;99975.44;;;31.61;40.60
4745;BME280;2386;42.138;24.746;2023-06-04T13:16:15;99971.97;;;32.53;38.89
4745;BME280;2386;42.138;24.746;2023-06-04T13:18:40;99980.78;;;33.13;38.04
4745;BME280;2386;42.138;24.746;2023-06-04T13:21:05;99981.56;;;33.33;38.06
4745;BME280;2386;42.138;24.746;2023-06-04T13:23:31;99977.59;;;34.10;36.91
4745;BME280;2386;42.138;24.746;2023-06-04T13:25:56;99978.06;;;35.12;34.48
4745;BME280;2386;42.138;24.746;2023-06-04T13:28:22;99984.84;;;36.69;32.95
4745;BME280;2386;42.138;24.746;2023-06-04T13:30:47;99972.44;;;36.98;31.41
4745;BME280;2386;42.138;24.746;2023-06-04T13:33:15;99985.41;;;38.06;29.31
4745;BME280;2386;42.138;24.746;2023-06-04T13:35:41;99980.66;;;38.90;28.83
4745;BME280;2386;42.138;24.746;2023-06-04T13:38:07;99992.25;;;38.30;29.83
4745;BME280;2386;42.138;24.746;2023-06-04T13:40:36;99992.31;;;37.52;30.29
4745;BME280;2386;42.138;24.746;2023-06-04T13:43:02;99976.75;;;36.64;31.69
4745;BME280;2386;42.138;24.746;2023-06-04T13:45:27;99979.38;;;36.25;32.56